createdAt,value
2018-09-01T00:01:14.729Z,10.50
2018-09-01T00:03:44.442Z,11.10
2018-09-01T00:06:14.089Z,10.53
2018-09-01T00:08:43.645Z,10.60
2018-09-01T00:11:13.292Z,9.90
2018-09-01T00:13:42.922Z,11.23
2018-09-01T00:16:12.506Z,10.70
2018-09-01T00:18:42.193Z,11.40
2018-09-01T00:21:11.884Z,10.43
2018-09-01T00:23:41.557Z,10.07
2018-09-01T00:26:11.176Z,10.23
2018-09-01T00:28:40.772Z,11.17
2018-09-01T00:31:10.390Z,10.77
2018-09-01T00:33:40.037Z,10.63
2018-09-01T00:36:09.673Z,11.13
2018-09-01T00:38:44.382Z,11.80
2018-09-01T00:41:13.959Z,10.53
2018-09-01T00:43:43.661Z,10.27
2018-09-01T00:46:13.327Z,10.87
2018-09-01T00:48:42.934Z,10.80
2018-09-01T00:51:12.628Z,10.83
2018-09-01T00:53:42.316Z,10.50
2018-09-01T00:56:11.897Z,10.53
2018-09-01T00:58:41.508Z,9.77
2018-09-01T01:01:11.139Z,9.30
2018-09-01T01:03:40.859Z,9.37
2018-09-01T01:06:10.451Z,9.23
2018-09-01T01:08:40.045Z,9.30
2018-09-01T01:11:09.673Z,9.03
2018-09-01T01:13:39.398Z,8.77
2018-09-01T01:16:09.114Z,9.20
2018-09-01T01:18:38.823Z,9.33
2018-09-01T01:21:08.452Z,8.87
2018-09-01T01:23:38.064Z,8.53
2018-09-01T01:26:07.838Z,9.10
2018-09-01T01:28:37.555Z,8.77
2018-09-01T01:31:07.577Z,8.50
2018-09-01T01:33:37.301Z,8.50
2018-09-01T01:36:06.956Z,9.90
2018-09-01T01:38:36.558Z,11.47
2018-09-01T01:41:06.294Z,12.77
2018-09-01T01:43:35.851Z,9.50
2018-09-01T01:46:05.453Z,9.70
2018-09-01T01:48:35.072Z,8.00
2018-09-01T01:51:04.737Z,8.60
2018-09-01T01:53:34.331Z,8.30
2018-09-01T01:56:03.918Z,7.80
2018-09-01T01:58:33.516Z,8.40
2018-09-01T02:01:03.125Z,8.10
2018-09-01T02:03:32.698Z,8.40
2018-09-01T02:06:02.314Z,8.13
2018-09-01T02:08:31.879Z,8.50
2018-09-01T02:11:01.486Z,8.97
2018-09-01T02:13:31.106Z,8.90
2018-09-01T02:16:00.714Z,8.07
2018-09-01T02:18:30.252Z,8.10
2018-09-01T02:20:59.924Z,8.70
2018-09-01T02:23:29.486Z,9.20
2018-09-01T02:25:59.207Z,8.80
2018-09-01T02:28:28.831Z,9.60
2018-09-01T02:30:58.467Z,9.17
2018-09-01T02:33:28.131Z,8.57
2018-09-01T02:35:57.733Z,8.43
2018-09-01T02:38:27.335Z,8.67
2018-09-01T02:40:56.994Z,9.10
2018-09-01T02:43:26.609Z,9.43
2018-09-01T02:45:56.206Z,9.20
2018-09-01T02:48:25.829Z,9.67
2018-09-01T02:50:55.471Z,9.00
2018-09-01T02:53:25.038Z,8.40
2018-09-01T02:55:54.639Z,8.60
2018-09-01T02:58:24.277Z,8.83
2018-09-01T03:00:59.109Z,8.57
2018-09-01T03:03:28.704Z,8.63
2018-09-01T03:05:58.269Z,8.63
2018-09-01T03:08:27.847Z,8.93
2018-09-01T03:10:57.537Z,8.53
2018-09-01T03:17:26.241Z,9.30
2018-09-01T03:23:01.131Z,9.97
2018-09-01T03:25:30.834Z,8.93
2018-09-01T03:28:00.504Z,8.60
2018-09-01T03:30:30.192Z,8.90
2018-09-01T03:33:00.960Z,10.00
2018-09-01T03:35:31.717Z,8.70
2018-09-01T03:38:02.511Z,9.40
2018-09-01T03:40:32.237Z,9.70
2018-09-01T03:43:02.608Z,8.70
2018-09-01T03:45:33.816Z,8.80
2018-09-01T03:48:03.567Z,8.47
2018-09-01T03:50:37.029Z,8.90
2018-09-01T03:53:06.800Z,9.70
2018-09-01T03:55:36.572Z,8.30
2018-09-01T03:58:06.490Z,9.03
2018-09-01T04:00:36.356Z,9.47
2018-09-01T04:03:06.231Z,9.53
2018-09-01T04:05:36.105Z,9.13
2018-09-01T04:08:06.038Z,9.23
2018-09-01T04:10:36.669Z,9.40
2018-09-01T04:13:06.266Z,9.13
2018-09-01T04:15:35.916Z,8.80
2018-09-01T04:18:09.227Z,9.50
2018-09-01T04:20:39.012Z,9.27
2018-09-01T04:23:08.759Z,9.70
2018-09-01T04:25:38.499Z,8.93
2018-09-01T04:28:09.321Z,8.93
2018-09-01T04:30:39.697Z,8.50
2018-09-01T04:33:11.332Z,9.33
2018-09-01T04:35:42.045Z,8.67
2018-09-01T04:38:11.746Z,8.30
2018-09-01T04:40:41.444Z,7.73
2018-09-01T04:43:11.813Z,8.10
2018-09-01T04:45:42.944Z,6.50
2018-09-01T04:48:13.169Z,5.33
2018-09-01T04:50:42.804Z,5.97
2018-09-01T04:53:12.469Z,5.90
2018-09-01T04:55:42.761Z,6.20
2018-09-01T04:58:12.355Z,5.63
2018-09-01T05:00:41.999Z,5.87
2018-09-01T05:03:11.721Z,3.80
2018-09-01T05:05:41.439Z,4.10
2018-09-01T05:08:11.155Z,3.40
2018-09-01T05:10:40.757Z,4.10
2018-09-01T05:13:10.388Z,3.73
2018-09-01T05:15:40.019Z,3.63
2018-09-01T05:18:09.779Z,4.03
2018-09-01T05:20:39.780Z,2.90
2018-09-01T05:23:10.447Z,2.80
2018-09-01T05:25:40.200Z,2.83
2018-09-01T05:28:09.799Z,2.87
2018-09-01T05:30:39.395Z,3.40
2018-09-01T05:33:09.136Z,4.40
2018-09-01T05:35:38.710Z,4.33
2018-09-01T05:38:08.270Z,4.40
2018-09-01T05:40:37.907Z,4.50
2018-09-01T05:43:07.555Z,5.30
2018-09-01T05:45:37.155Z,4.73
2018-09-01T05:48:06.732Z,5.00
2018-09-01T05:50:36.379Z,5.17
2018-09-01T05:53:06.061Z,5.20
2018-09-01T05:55:35.673Z,4.70
2018-09-01T05:58:05.301Z,4.90
2018-09-01T06:00:36.689Z,4.73
2018-09-01T06:03:06.374Z,4.50
2018-09-01T06:05:36.141Z,4.53
2018-09-01T06:08:05.759Z,4.73
2018-09-01T06:10:35.330Z,4.60
2018-09-01T06:13:05.066Z,5.20
2018-09-01T06:15:35.247Z,4.87
2018-09-01T06:18:04.968Z,5.47
2018-09-01T06:20:34.691Z,4.83
2018-09-01T06:23:05.684Z,4.97
2018-09-01T06:25:35.443Z,5.60
2018-09-01T06:28:10.417Z,4.80
2018-09-01T06:30:42.399Z,4.80
2018-09-01T06:33:12.281Z,5.13
2018-09-01T06:35:42.945Z,4.50
2018-09-01T06:38:12.698Z,4.77
2018-09-01T06:40:42.339Z,4.17
2018-09-01T06:43:15.877Z,3.70
2018-09-01T06:45:45.655Z,3.23
2018-09-01T06:48:15.336Z,2.80
2018-09-01T06:50:44.955Z,3.60
2018-09-01T06:53:14.614Z,2.87
2018-09-01T06:55:44.326Z,2.47
2018-09-01T06:58:17.227Z,2.20
2018-09-01T07:00:46.903Z,2.20
2018-09-01T07:03:16.513Z,1.93
2018-09-01T07:05:46.170Z,2.13
2018-09-01T07:08:16.206Z,2.20
2018-09-01T07:10:45.884Z,2.20
2018-09-01T07:13:15.494Z,2.20
2018-09-01T07:15:45.097Z,2.63
2018-09-01T07:18:14.699Z,2.20
2018-09-01T07:20:44.315Z,2.60
2018-09-01T07:23:13.949Z,2.87
2018-09-01T07:25:43.700Z,2.90
2018-09-01T07:28:13.342Z,3.73
2018-09-01T07:30:42.958Z,3.63
2018-09-01T07:33:12.821Z,3.53
2018-09-01T07:35:42.448Z,3.63
2018-09-01T07:38:12.071Z,3.70
2018-09-01T07:40:41.669Z,3.77
2018-09-01T07:43:11.451Z,3.30
2018-09-01T07:45:41.067Z,3.03
2018-09-01T07:48:10.768Z,3.00
2018-09-01T07:50:40.462Z,2.60
2018-09-01T07:53:10.079Z,3.00
2018-09-01T07:55:39.826Z,2.63
2018-09-01T07:58:09.527Z,3.10
2018-09-01T08:00:39.171Z,3.00
2018-09-01T08:03:08.744Z,2.20
2018-09-01T08:05:38.394Z,1.80
2018-09-01T08:08:08.023Z,2.00
2018-09-01T08:10:37.644Z,2.10
2018-09-01T08:13:07.567Z,2.03
2018-09-01T08:15:37.171Z,2.10
2018-09-01T08:18:07.049Z,2.00
2018-09-01T08:20:36.690Z,2.43
2018-09-01T08:23:08.094Z,1.90
2018-09-01T08:25:38.005Z,2.80
2018-09-01T08:28:07.787Z,2.30
2018-09-01T08:30:38.979Z,2.50
2018-09-01T08:33:08.721Z,2.70
2018-09-01T08:35:38.314Z,2.43
2018-09-01T08:38:08.105Z,2.03
2018-09-01T08:40:37.696Z,2.23
2018-09-01T08:43:07.777Z,2.43
2018-09-01T08:45:37.393Z,2.23
2018-09-01T08:48:07.328Z,2.00
2018-09-01T08:50:37.008Z,2.60
2018-09-01T08:53:06.718Z,2.43
2018-09-01T08:55:36.413Z,2.40
2018-09-01T08:58:06.415Z,2.63
2018-09-01T09:00:36.016Z,2.47
2018-09-01T09:03:05.631Z,2.67
2018-09-01T09:05:35.263Z,2.60
2018-09-01T09:08:04.930Z,2.30
2018-09-01T09:10:34.562Z,2.47
2018-09-01T09:13:04.125Z,2.50
2018-09-01T09:15:34.161Z,2.67
2018-09-01T09:18:04.844Z,2.40
2018-09-01T09:20:34.443Z,2.40
2018-09-01T09:23:04.063Z,2.43
2018-09-01T09:25:33.648Z,2.53
2018-09-01T09:28:03.226Z,2.60
2018-09-01T09:30:32.782Z,2.47
2018-09-01T09:33:02.401Z,2.50
2018-09-01T09:35:32.039Z,2.53
2018-09-01T09:38:01.620Z,2.67
2018-09-01T09:40:31.242Z,2.63
2018-09-01T09:43:00.836Z,2.73
2018-09-01T09:45:30.479Z,2.50
2018-09-01T09:48:00.099Z,2.60
2018-09-01T09:50:29.696Z,2.83
2018-09-01T09:52:59.296Z,3.07
2018-09-01T09:55:29.013Z,2.73
2018-09-01T09:57:58.636Z,2.97
2018-09-01T10:00:33.209Z,3.00
2018-09-01T10:03:02.744Z,3.13
2018-09-01T10:05:32.355Z,3.70
2018-09-01T10:08:01.919Z,3.20
2018-09-01T10:10:31.527Z,3.00
2018-09-01T10:13:01.184Z,3.80
2018-09-01T10:15:30.799Z,3.80
2018-09-01T10:18:00.436Z,3.83
2018-09-01T10:20:30.128Z,4.53
2018-09-01T10:22:59.946Z,5.13
2018-09-01T10:25:29.884Z,4.20
2018-09-01T10:27:59.805Z,4.70
2018-09-01T10:30:29.772Z,4.00
2018-09-01T10:32:59.652Z,4.03
2018-09-01T10:35:29.432Z,3.60
2018-09-01T10:37:59.562Z,3.83
2018-09-01T10:40:29.562Z,3.57
2018-09-01T10:42:59.481Z,4.70
2018-09-01T10:45:29.333Z,5.63
2018-09-01T10:47:59.265Z,4.30
2018-09-01T10:50:29.141Z,3.60
2018-09-01T10:52:59.089Z,4.10
2018-09-01T10:55:28.972Z,4.10
2018-09-01T10:57:58.842Z,3.93
2018-09-01T11:00:28.777Z,3.87
2018-09-01T11:02:58.760Z,3.63
2018-09-01T11:05:28.702Z,3.60
2018-09-01T11:07:58.722Z,3.90
2018-09-01T11:10:28.645Z,4.20
2018-09-01T11:12:58.537Z,3.60
2018-09-01T11:15:28.400Z,3.50
2018-09-01T11:20:42.775Z,3.80
2018-09-01T11:23:12.749Z,4.20
2018-09-01T11:25:42.784Z,5.60
2018-09-01T11:28:12.980Z,5.60
2018-09-01T11:30:43.283Z,4.37
2018-09-01T11:33:13.296Z,4.77
2018-09-01T11:35:43.672Z,4.27
2018-09-01T11:38:13.628Z,4.50
2018-09-01T11:40:43.518Z,5.10
2018-09-01T11:43:13.494Z,5.23
2018-09-01T11:45:43.490Z,5.70
2018-09-01T11:48:13.372Z,5.30
2018-09-01T11:50:43.928Z,4.90
2018-09-01T11:53:13.715Z,4.37
2018-09-01T11:55:43.661Z,4.73
2018-09-01T11:58:13.526Z,4.13
2018-09-01T12:00:43.325Z,4.30
2018-09-01T12:03:14.205Z,3.47
2018-09-01T12:05:44.070Z,3.77
2018-09-01T12:08:14.146Z,4.20
2018-09-01T12:10:44.222Z,3.93
2018-09-01T12:13:13.829Z,3.70
2018-09-01T12:18:37.608Z,3.23
2018-09-01T12:21:07.273Z,3.60
2018-09-01T12:23:36.945Z,3.47
2018-09-01T12:26:06.651Z,3.60
2018-09-01T12:28:36.263Z,3.57
2018-09-01T12:31:05.892Z,3.30
2018-09-01T12:33:35.498Z,3.17
2018-09-01T12:36:05.335Z,3.03
2018-09-01T12:38:35.007Z,3.13
2018-09-01T12:41:04.868Z,3.17
2018-09-01T12:43:34.549Z,3.10
2018-09-01T12:46:10.630Z,3.37
2018-09-01T12:48:40.296Z,2.90
2018-09-01T12:51:10.026Z,3.30
2018-09-01T12:53:39.820Z,3.20
2018-09-01T12:56:09.629Z,3.07
2018-09-01T12:58:39.362Z,2.70
2018-09-01T13:01:09.104Z,2.70
2018-09-01T13:03:39.629Z,3.20
2018-09-01T13:06:10.821Z,2.80
2018-09-01T13:08:40.899Z,2.90
2018-09-01T13:11:10.776Z,2.80
2018-09-01T13:13:40.644Z,2.75
2018-09-01T13:16:10.924Z,2.47
2018-09-01T13:18:40.754Z,2.30
2018-09-01T13:21:10.588Z,2.17
2018-09-01T13:23:40.340Z,2.27
2018-09-01T13:26:10.034Z,2.15
2018-09-01T13:28:39.948Z,2.27
2018-09-01T13:31:11.377Z,2.40
2018-09-01T13:33:41.328Z,2.92
2018-09-01T13:36:11.496Z,2.50
2018-09-01T13:38:41.296Z,2.10
2018-09-01T13:41:11.055Z,2.40
2018-09-01T13:43:40.756Z,2.40
2018-09-01T13:46:10.600Z,2.45
2018-09-01T13:48:40.809Z,2.60
2018-09-01T13:51:10.828Z,2.40
2018-09-01T13:53:40.776Z,2.37
2018-09-01T13:56:10.499Z,2.72
2018-09-01T13:58:40.136Z,2.15
2018-09-01T14:01:09.942Z,2.47
2018-09-01T14:03:39.679Z,2.70
2018-09-01T14:06:09.668Z,3.05
2018-09-01T14:08:39.328Z,2.47
2018-09-01T14:11:08.924Z,2.80
2018-09-01T14:13:38.718Z,2.72
2018-09-01T14:16:08.289Z,2.80
2018-09-01T14:18:37.984Z,2.80
2018-09-01T14:21:07.828Z,2.90
2018-09-01T14:23:37.699Z,2.75
2018-09-01T14:26:07.479Z,2.80
2018-09-01T14:28:37.337Z,3.12
2018-09-01T14:31:07.011Z,3.05
2018-09-01T14:33:36.893Z,3.02
2018-09-01T14:36:07.082Z,2.87
2018-09-01T14:38:39.185Z,3.30
2018-09-01T14:41:09.896Z,3.22
2018-09-01T14:43:41.757Z,2.90
2018-09-01T14:46:12.188Z,3.40
2018-09-01T14:48:44.324Z,3.33
2018-09-01T14:51:14.050Z,3.90
2018-09-01T14:53:44.768Z,4.30
2018-09-01T14:56:14.930Z,4.37
2018-09-01T14:58:44.863Z,3.80
2018-09-01T15:01:14.549Z,4.10
2018-09-01T15:03:44.500Z,3.57
2018-09-01T15:06:14.597Z,3.60
2018-09-01T15:08:45.021Z,3.87
2018-09-01T15:11:14.966Z,4.20
2018-09-01T15:13:44.916Z,3.80
2018-09-01T15:16:14.859Z,4.13
2018-09-01T15:18:44.903Z,4.40
2018-09-01T15:21:15.278Z,4.17
2018-09-01T15:23:45.065Z,4.45
2018-09-01T15:26:15.019Z,4.30
2018-09-01T15:28:44.836Z,4.33
2018-09-01T15:31:15.664Z,4.57
2018-09-01T15:33:47.032Z,4.80
2018-09-01T15:36:18.491Z,4.60
2018-09-01T15:38:48.378Z,4.40
2018-09-01T15:41:18.179Z,4.57
2018-09-01T15:43:48.659Z,3.97
2018-09-01T15:46:18.431Z,3.90
2018-09-01T15:48:48.147Z,4.40
2018-09-01T15:51:17.942Z,4.23
2018-09-01T15:53:47.880Z,3.70
2018-09-01T15:56:18.328Z,4.07
2018-09-01T15:58:48.315Z,3.97
2018-09-01T16:01:18.131Z,3.93
2018-09-01T16:03:47.873Z,4.00
2018-09-01T16:06:17.573Z,3.77
2018-09-01T16:08:47.910Z,3.67
2018-09-01T16:11:21.452Z,3.17
2018-09-01T16:13:51.454Z,3.07
2018-09-01T16:16:23.136Z,3.50
2018-09-01T16:18:53.574Z,3.57
2018-09-01T16:21:23.798Z,3.57
2018-09-01T16:23:54.192Z,3.67
2018-09-01T16:26:24.390Z,3.67
2018-09-01T16:28:54.643Z,3.23
2018-09-01T16:31:24.970Z,2.93
2018-09-01T16:33:55.496Z,3.53
2018-09-01T16:36:26.057Z,3.50
2018-09-01T16:38:56.338Z,3.87
2018-09-01T16:41:26.757Z,3.53
2018-09-01T16:43:57.122Z,3.67
2018-09-01T16:46:27.389Z,3.67
2018-09-01T16:48:57.592Z,3.47
2018-09-01T16:51:27.883Z,3.77
2018-09-01T16:53:57.837Z,3.20
2018-09-01T16:56:27.785Z,3.73
2018-09-01T16:58:58.061Z,4.00
2018-09-01T17:01:29.209Z,3.90
2018-09-01T17:03:59.548Z,3.40
2018-09-01T17:06:29.806Z,3.43
2018-09-01T17:09:00.737Z,3.73
2018-09-01T17:11:31.012Z,3.70
2018-09-01T17:14:01.429Z,3.53
2018-09-01T17:16:31.861Z,3.60
2018-09-01T17:19:02.075Z,3.33
2018-09-01T17:21:32.393Z,3.47
2018-09-01T17:24:02.636Z,3.60
2018-09-01T17:26:32.989Z,3.77
2018-09-01T17:29:04.181Z,3.37
2018-09-01T17:31:34.606Z,3.30
2018-09-01T17:34:04.956Z,3.43
2018-09-01T17:36:35.397Z,3.83
2018-09-01T17:39:07.759Z,4.00
2018-09-01T17:41:38.191Z,3.70
2018-09-01T17:44:08.688Z,4.53
2018-09-01T17:46:39.210Z,4.20
2018-09-01T17:49:09.577Z,4.33
2018-09-01T17:51:40.104Z,3.80
2018-09-01T17:54:10.488Z,4.23
2018-09-01T17:56:41.036Z,3.70
2018-09-01T17:59:11.476Z,3.40
2018-09-01T18:01:42.457Z,3.70
2018-09-01T18:04:12.956Z,3.53
2018-09-01T18:06:51.278Z,2.97
2018-09-01T18:09:27.817Z,3.60
2018-09-01T18:21:19.015Z,4.20
2018-09-01T18:41:35.077Z,4.10
2018-09-01T18:44:06.581Z,4.13
2018-09-01T18:49:30.728Z,3.80
2018-09-01T18:52:01.567Z,3.70
2018-09-01T18:54:33.788Z,4.10
2018-09-01T18:57:04.619Z,4.50
2018-09-01T18:59:35.665Z,5.13
2018-09-01T19:02:07.122Z,5.83
2018-09-01T19:04:38.206Z,6.10
2018-09-01T19:07:10.902Z,5.13
2018-09-01T19:09:42.431Z,5.00
2018-09-01T19:12:13.743Z,4.60
2018-09-01T19:14:44.816Z,4.47
2018-09-01T19:17:16.850Z,4.47
2018-09-01T19:19:51.432Z,3.97
2018-09-01T19:22:26.444Z,4.27
2018-09-01T19:25:01.383Z,4.37
2018-09-01T19:27:36.241Z,3.80
2018-09-01T19:30:13.122Z,3.80
2018-09-01T19:32:46.927Z,4.83
2018-09-01T19:35:21.137Z,4.17
2018-09-01T19:37:53.321Z,4.07
2018-09-01T19:40:26.770Z,4.00
2018-09-01T19:42:58.585Z,3.70
2018-09-01T19:45:30.226Z,4.13
2018-09-01T19:48:02.046Z,4.23
2018-09-01T19:50:33.857Z,3.97
2018-09-01T19:53:05.082Z,3.90
2018-09-01T19:55:36.386Z,3.97
2018-09-01T19:58:09.767Z,4.40
2018-09-01T20:00:43.814Z,4.47
2018-09-01T20:03:18.822Z,4.43
2018-09-01T20:05:54.428Z,4.90
2018-09-01T20:08:28.553Z,4.90
2018-09-01T20:11:04.449Z,5.17
2018-09-01T20:13:39.349Z,5.77
2018-09-01T20:16:11.206Z,4.03
2018-09-01T20:18:46.366Z,4.50
2018-09-01T20:21:19.523Z,4.53
2018-09-01T20:23:53.515Z,4.90
2018-09-01T20:26:29.726Z,5.00
2018-09-01T20:29:03.241Z,4.60
2018-09-01T20:31:34.191Z,5.17
2018-09-01T20:34:06.078Z,5.03
2018-09-01T20:36:38.216Z,4.87
2018-09-01T20:39:10.219Z,5.20
2018-09-01T20:41:42.577Z,4.77
2018-09-01T20:44:14.482Z,4.60
2018-09-01T20:46:45.052Z,4.50
2018-09-01T20:49:15.609Z,4.33
2018-09-01T20:51:46.188Z,5.27
2018-09-01T20:54:16.494Z,4.53
2018-09-01T20:56:47.008Z,4.60
2018-09-01T20:59:17.500Z,3.87
2018-09-01T21:01:48.074Z,4.03
2018-09-01T21:04:18.696Z,4.27
2018-09-01T21:06:49.339Z,4.00
2018-09-01T21:09:19.728Z,3.47
2018-09-01T21:11:50.285Z,4.13
2018-09-01T21:14:27.175Z,3.60
2018-09-01T21:16:56.915Z,4.00
2018-09-01T21:19:26.680Z,3.97
2018-09-01T21:21:56.747Z,4.20
2018-09-01T21:24:26.632Z,3.77
2018-09-01T21:26:56.512Z,4.23
2018-09-01T21:29:26.230Z,3.93
2018-09-01T21:31:55.946Z,4.00
2018-09-01T21:34:25.704Z,4.03
2018-09-01T21:36:55.416Z,4.10
2018-09-01T21:39:25.054Z,4.33
2018-09-01T21:41:54.756Z,4.10
2018-09-01T21:44:24.403Z,4.03
2018-09-01T21:46:54.057Z,3.87
2018-09-01T21:49:23.713Z,3.57
2018-09-01T21:51:53.383Z,3.60
2018-09-01T21:54:22.967Z,3.73
2018-09-01T21:56:52.674Z,3.60
2018-09-01T21:59:22.439Z,3.33
2018-09-01T22:01:57.132Z,3.83
2018-09-01T22:04:26.923Z,3.50
2018-09-01T22:06:56.496Z,4.00
2018-09-01T22:09:26.055Z,4.70
2018-09-01T22:11:55.696Z,5.00
2018-09-01T22:14:25.284Z,4.87
2018-09-01T22:16:54.888Z,4.80
2018-09-01T22:19:24.460Z,5.00
2018-09-01T22:21:54.054Z,5.53
2018-09-01T22:24:23.648Z,6.00
2018-09-01T22:26:53.241Z,5.23
2018-09-01T22:29:22.919Z,5.37
2018-09-01T22:31:52.568Z,5.40
2018-09-01T22:34:22.214Z,5.20
2018-09-01T22:36:51.777Z,5.20
2018-09-01T22:39:21.318Z,5.50
2018-09-01T22:41:50.992Z,5.50
2018-09-01T22:44:20.724Z,6.00
2018-09-01T22:46:50.813Z,4.60
2018-09-01T22:49:20.417Z,5.03
2018-09-01T22:51:50.022Z,4.93
2018-09-01T22:54:19.715Z,4.77
2018-09-01T22:56:49.340Z,4.40
2018-09-01T22:59:19.013Z,4.53
2018-09-01T23:01:48.620Z,4.43
2018-09-01T23:04:18.360Z,4.10
2018-09-01T23:06:47.954Z,4.03
2018-09-01T23:09:17.624Z,4.20
2018-09-01T23:11:48.130Z,4.00
2018-09-01T23:14:17.748Z,4.07
2018-09-01T23:16:47.414Z,3.40
2018-09-01T23:19:17.012Z,3.87
2018-09-01T23:21:46.752Z,3.47
2018-09-01T23:24:16.478Z,3.10
2018-09-01T23:26:46.372Z,2.83
2018-09-01T23:29:16.066Z,3.00
2018-09-01T23:31:45.650Z,2.93
2018-09-01T23:34:15.255Z,2.80
2018-09-01T23:36:44.889Z,3.10
2018-09-01T23:39:14.470Z,3.13
2018-09-01T23:41:44.233Z,2.97
2018-09-01T23:44:13.834Z,2.97
2018-09-01T23:46:43.493Z,3.30
2018-09-01T23:49:13.171Z,2.93
2018-09-01T23:51:42.812Z,3.13
2018-09-01T23:54:12.365Z,3.73
2018-09-01T23:56:41.967Z,3.10
2018-09-01T23:59:11.623Z,3.23
